sensor_id;sensor_type;location;lat;lon;timestamp;temperature;humidity
18712;DHT22;9485;49.386;8.674;2023-10-31T00:02:19;16.70;92.50
18712;DHT22;9485;49.386;8.674;2023-10-31T00:07:40;16.70;92.40
18712;DHT22;9485;49.386;8.674;2023-10-31T00:13:02;16.60;92.20
18712;DHT22;9485;49.386;8.674;2023-10-31T00:18:24;16.50;92.10
18712;DHT22;9485;49.386;8.674;2023-10-31T00:23:44;16.50;92.00
18712;DHT22;9485;49.386;8.674;2023-10-31T00:29:06;16.40;92.00
18712;DHT22;9485;49.386;8.674;2023-10-31T00:34:27;16.30;91.90
18712;DHT22;9485;49.386;8.674;2023-10-31T00:39:48;16.20;91.80
18712;DHT22;9485;49.386;8.674;2023-10-31T00:45:10;16.10;91.80
18712;DHT22;9485;49.386;8.674;2023-10-31T00:50:31;16.00;91.70
18712;DHT22;9485;49.386;8.674;2023-10-31T00:55:52;16.00;91.80
18712;DHT22;9485;49.386;8.674;2023-10-31T01:01:14;15.80;91.80
18712;DHT22;9485;49.386;8.674;2023-10-31T01:06:40;15.80;91.90
18712;DHT22;9485;49.386;8.674;2023-10-31T01:12:01;15.80;91.90
18712;DHT22;9485;49.386;8.674;2023-10-31T01:17:23;15.70;91.90
18712;DHT22;9485;49.386;8.674;2023-10-31T01:22:44;15.70;91.90
18712;DHT22;9485;49.386;8.674;2023-10-31T01:28:04;15.60;91.80
18712;DHT22;9485;49.386;8.674;2023-10-31T01:33:27;15.60;91.80
18712;DHT22;9485;49.386;8.674;2023-10-31T01:38:47;15.50;91.70
18712;DHT22;9485;49.386;8.674;2023-10-31T01:44:07;15.40;91.70
18712;DHT22;9485;49.386;8.674;2023-10-31T01:49:30;15.40;91.80
18712;DHT22;9485;49.386;8.674;2023-10-31T01:54:52;15.40;91.80
18712;DHT22;9485;49.386;8.674;2023-10-31T02:00:14;15.30;91.80
18712;DHT22;9485;49.386;8.674;2023-10-31T02:05:37;15.30;91.90
18712;DHT22;9485;49.386;8.674;2023-10-31T02:10:58;15.30;92.00
18712;DHT22;9485;49.386;8.674;2023-10-31T02:16:18;15.30;91.90
18712;DHT22;9485;49.386;8.674;2023-10-31T02:21:40;15.30;91.90
18712;DHT22;9485;49.386;8.674;2023-10-31T02:27:03;15.30;91.90
18712;DHT22;9485;49.386;8.674;2023-10-31T02:32:23;15.30;91.90
18712;DHT22;9485;49.386;8.674;2023-10-31T02:37:45;15.30;92.00
18712;DHT22;9485;49.386;8.674;2023-10-31T02:43:06;15.30;92.00
18712;DHT22;9485;49.386;8.674;2023-10-31T02:48:26;15.30;92.00
18712;DHT22;9485;49.386;8.674;2023-10-31T02:53:49;15.30;92.00
18712;DHT22;9485;49.386;8.674;2023-10-31T02:59:10;15.30;92.00
18712;DHT22;9485;49.386;8.674;2023-10-31T03:04:30;15.30;92.00
18712;DHT22;9485;49.386;8.674;2023-10-31T03:09:53;15.30;92.00
18712;DHT22;9485;49.386;8.674;2023-10-31T03:15:14;15.30;91.90
18712;DHT22;9485;49.386;8.674;2023-10-31T03:20:36;15.40;91.90
18712;DHT22;9485;49.386;8.674;2023-10-31T03:25:57;15.30;91.70
18712;DHT22;9485;49.386;8.674;2023-10-31T03:31:18;15.20;91.70
18712;DHT22;9485;49.386;8.674;2023-10-31T03:36:38;15.20;91.60
18712;DHT22;9485;49.386;8.674;2023-10-31T03:42:01;15.20;91.50
18712;DHT22;9485;49.386;8.674;2023-10-31T03:47:22;15.10;91.40
18712;DHT22;9485;49.386;8.674;2023-10-31T03:52:43;15.00;91.30
18712;DHT22;9485;49.386;8.674;2023-10-31T03:58:05;15.00;91.40
18712;DHT22;9485;49.386;8.674;2023-10-31T04:03:26;14.90;91.30
18712;DHT22;9485;49.386;8.674;2023-10-31T04:08:47;14.90;91.50
18712;DHT22;9485;49.386;8.674;2023-10-31T04:14:08;14.80;91.50
18712;DHT22;9485;49.386;8.674;2023-10-31T04:19:29;14.80;91.60
18712;DHT22;9485;49.386;8.674;2023-10-31T04:24:50;14.90;91.70
18712;DHT22;9485;49.386;8.674;2023-10-31T04:30:12;14.90;91.70
18712;DHT22;9485;49.386;8.674;2023-10-31T04:35:32;14.90;91.60
18712;DHT22;9485;49.386;8.674;2023-10-31T04:40:53;14.90;91.70
18712;DHT22;9485;49.386;8.674;2023-10-31T04:46:14;14.90;91.70
18712;DHT22;9485;49.386;8.674;2023-10-31T04:51:36;14.90;91.70
18712;DHT22;9485;49.386;8.674;2023-10-31T04:56:57;15.00;91.70
18712;DHT22;9485;49.386;8.674;2023-10-31T05:02:21;15.00;91.60
18712;DHT22;9485;49.386;8.674;2023-10-31T05:07:43;15.00;91.60
18712;DHT22;9485;49.386;8.674;2023-10-31T05:13:03;15.00;91.60
18712;DHT22;9485;49.386;8.674;2023-10-31T05:18:25;15.00;91.60
18712;DHT22;9485;49.386;8.674;2023-10-31T05:23:46;15.00;91.60
18712;DHT22;9485;49.386;8.674;2023-10-31T05:29:06;15.00;91.60
18712;DHT22;9485;49.386;8.674;2023-10-31T05:34:28;15.00;91.50
18712;DHT22;9485;49.386;8.674;2023-10-31T05:39:49;15.10;91.50
18712;DHT22;9485;49.386;8.674;2023-10-31T05:45:09;15.00;91.40
18712;DHT22;9485;49.386;8.674;2023-10-31T05:50:31;15.10;91.40
18712;DHT22;9485;49.386;8.674;2023-10-31T05:55:52;15.10;91.40
18712;DHT22;9485;49.386;8.674;2023-10-31T06:01:12;15.00;91.40
18712;DHT22;9485;49.386;8.674;2023-10-31T06:06:37;15.00;91.40
18712;DHT22;9485;49.386;8.674;2023-10-31T06:11:58;15.00;91.40
18712;DHT22;9485;49.386;8.674;2023-10-31T06:17:19;15.00;91.50
18712;DHT22;9485;49.386;8.674;2023-10-31T06:22:41;15.00;91.50
18712;DHT22;9485;49.386;8.674;2023-10-31T06:28:01;15.00;91.40
18712;DHT22;9485;49.386;8.674;2023-10-31T06:33:22;15.10;91.50
18712;DHT22;9485;49.386;8.674;2023-10-31T06:38:44;15.10;91.50
18712;DHT22;9485;49.386;8.674;2023-10-31T06:44:05;15.10;91.50
18712;DHT22;9485;49.386;8.674;2023-10-31T06:49:26;15.10;91.40
18712;DHT22;9485;49.386;8.674;2023-10-31T06:54:48;15.10;91.40
18712;DHT22;9485;49.386;8.674;2023-10-31T07:00:10;15.00;91.30
18712;DHT22;9485;49.386;8.674;2023-10-31T07:05:32;15.10;91.30
18712;DHT22;9485;49.386;8.674;2023-10-31T07:10:54;15.10;91.40
18712;DHT22;9485;49.386;8.674;2023-10-31T07:16:15;15.10;91.30
18712;DHT22;9485;49.386;8.674;2023-10-31T07:21:36;15.10;91.30
18712;DHT22;9485;49.386;8.674;2023-10-31T07:26:58;15.10;91.30
18712;DHT22;9485;49.386;8.674;2023-10-31T07:32:18;15.10;91.40
18712;DHT22;9485;49.386;8.674;2023-10-31T07:37:39;15.10;91.40
18712;DHT22;9485;49.386;8.674;2023-10-31T07:43:01;15.20;91.50
18712;DHT22;9485;49.386;8.674;2023-10-31T07:48:21;15.20;91.50
18712;DHT22;9485;49.386;8.674;2023-10-31T07:53:42;15.20;91.50
18712;DHT22;9485;49.386;8.674;2023-10-31T07:59:04;15.30;91.50
18712;DHT22;9485;49.386;8.674;2023-10-31T08:04:25;15.20;91.50
18712;DHT22;9485;49.386;8.674;2023-10-31T08:09:47;15.30;91.50
18712;DHT22;9485;49.386;8.674;2023-10-31T08:15:09;15.40;91.50
18712;DHT22;9485;49.386;8.674;2023-10-31T08:20:30;15.50;91.60
18712;DHT22;9485;49.386;8.674;2023-10-31T08:25:53;15.50;91.70
18712;DHT22;9485;49.386;8.674;2023-10-31T08:31:14;15.60;91.60
18712;DHT22;9485;49.386;8.674;2023-10-31T08:36:35;15.70;91.60
18712;DHT22;9485;49.386;8.674;2023-10-31T08:41:56;15.80;91.60
18712;DHT22;9485;49.386;8.674;2023-10-31T08:47:20;15.90;91.60
18712;DHT22;9485;49.386;8.674;2023-10-31T08:52:40;15.90;91.40
18712;DHT22;9485;49.386;8.674;2023-10-31T08:58:01;15.90;91.40
18712;DHT22;9485;49.386;8.674;2023-10-31T09:03:23;15.90;91.40
18712;DHT22;9485;49.386;8.674;2023-10-31T09:08:43;16.10;91.50
18712;DHT22;9485;49.386;8.674;2023-10-31T09:14:04;16.10;91.50
18712;DHT22;9485;49.386;8.674;2023-10-31T09:19:26;16.20;91.50
18712;DHT22;9485;49.386;8.674;2023-10-31T09:24:47;16.30;91.30
18712;DHT22;9485;49.386;8.674;2023-10-31T09:30:08;16.40;91.50
18712;DHT22;9485;49.386;8.674;2023-10-31T09:35:30;16.50;91.70
18712;DHT22;9485;49.386;8.674;2023-10-31T09:40:51;16.70;92.30
18712;DHT22;9485;49.386;8.674;2023-10-31T09:46:12;17.20;93.60
18712;DHT22;9485;49.386;8.674;2023-10-31T09:51:34;17.70;93.30
18712;DHT22;9485;49.386;8.674;2023-10-31T09:56:54;18.20;93.20
18712;DHT22;9485;49.386;8.674;2023-10-31T10:02:15;18.80;93.70
18712;DHT22;9485;49.386;8.674;2023-10-31T10:07:41;19.30;92.60
18712;DHT22;9485;49.386;8.674;2023-10-31T10:13:02;19.70;91.20
18712;DHT22;9485;49.386;8.674;2023-10-31T10:18:26;20.00;90.80
18712;DHT22;9485;49.386;8.674;2023-10-31T10:23:51;20.10;90.20
18712;DHT22;9485;49.386;8.674;2023-10-31T10:29:12;20.20;90.20
18712;DHT22;9485;49.386;8.674;2023-10-31T10:34:33;20.30;90.40
18712;DHT22;9485;49.386;8.674;2023-10-31T10:39:56;20.40;90.00
18712;DHT22;9485;49.386;8.674;2023-10-31T10:45:19;20.40;87.90
18712;DHT22;9485;49.386;8.674;2023-10-31T10:50:43;20.30;87.40
18712;DHT22;9485;49.386;8.674;2023-10-31T10:56:15;20.20;86.90
18712;DHT22;9485;49.386;8.674;2023-10-31T11:01:42;20.10;86.80
18712;DHT22;9485;49.386;8.674;2023-10-31T11:07:05;19.90;87.60
18712;DHT22;9485;49.386;8.674;2023-10-31T11:12:29;19.90;87.60
18712;DHT22;9485;49.386;8.674;2023-10-31T11:17:50;19.80;86.70
18712;DHT22;9485;49.386;8.674;2023-10-31T11:23:13;19.60;86.90
18712;DHT22;9485;49.386;8.674;2023-10-31T11:28:36;19.50;87.20
18712;DHT22;9485;49.386;8.674;2023-10-31T11:33:56;19.40;87.20
18712;DHT22;9485;49.386;8.674;2023-10-31T11:39:19;19.30;88.10
18712;DHT22;9485;49.386;8.674;2023-10-31T11:44:55;19.30;88.90
18712;DHT22;9485;49.386;8.674;2023-10-31T11:50:17;19.40;88.10
18712;DHT22;9485;49.386;8.674;2023-10-31T11:55:40;19.50;90.00
18712;DHT22;9485;49.386;8.674;2023-10-31T12:01:04;19.70;90.20
18712;DHT22;9485;49.386;8.674;2023-10-31T12:06:26;20.00;90.00
18712;DHT22;9485;49.386;8.674;2023-10-31T12:11:46;20.30;90.00
18712;DHT22;9485;49.386;8.674;2023-10-31T12:17:08;20.40;89.90
18712;DHT22;9485;49.386;8.674;2023-10-31T12:22:29;20.60;90.10
18712;DHT22;9485;49.386;8.674;2023-10-31T12:27:50;21.00;90.50
18712;DHT22;9485;49.386;8.674;2023-10-31T12:33:12;21.30;90.40
18712;DHT22;9485;49.386;8.674;2023-10-31T12:38:33;21.70;90.30
18712;DHT22;9485;49.386;8.674;2023-10-31T12:43:54;22.10;90.30
18712;DHT22;9485;49.386;8.674;2023-10-31T12:49:19;22.40;88.10
18712;DHT22;9485;49.386;8.674;2023-10-31T12:54:40;22.40;85.90
18712;DHT22;9485;49.386;8.674;2023-10-31T13:00:01;22.30;86.60
18712;DHT22;9485;49.386;8.674;2023-10-31T13:05:25;22.20;86.00
18712;DHT22;9485;49.386;8.674;2023-10-31T13:10:47;22.20;85.20
18712;DHT22;9485;49.386;8.674;2023-10-31T13:16:09;22.10;85.20
18712;DHT22;9485;49.386;8.674;2023-10-31T13:21:31;21.90;84.80
18712;DHT22;9485;49.386;8.674;2023-10-31T13:26:52;21.80;84.40
18712;DHT22;9485;49.386;8.674;2023-10-31T13:32:12;21.70;84.90
18712;DHT22;9485;49.386;8.674;2023-10-31T13:37:34;21.60;84.90
18712;DHT22;9485;49.386;8.674;2023-10-31T13:42:55;21.40;84.30
18712;DHT22;9485;49.386;8.674;2023-10-31T13:48:15;21.30;84.00
18712;DHT22;9485;49.386;8.674;2023-10-31T13:53:37;21.10;83.60
18712;DHT22;9485;49.386;8.674;2023-10-31T13:58:58;20.80;83.50
18712;DHT22;9485;49.386;8.674;2023-10-31T14:04:19;20.60;84.50
18712;DHT22;9485;49.386;8.674;2023-10-31T14:09:41;20.40;84.90
18712;DHT22;9485;49.386;8.674;2023-10-31T14:15:02;20.20;84.70
18712;DHT22;9485;49.386;8.674;2023-10-31T14:20:23;20.10;85.20
18712;DHT22;9485;49.386;8.674;2023-10-31T14:25:45;20.00;85.50
18712;DHT22;9485;49.386;8.674;2023-10-31T14:31:06;19.90;85.80
18712;DHT22;9485;49.386;8.674;2023-10-31T14:36:27;19.80;86.10
18712;DHT22;9485;49.386;8.674;2023-10-31T14:41:49;19.70;85.80
18712;DHT22;9485;49.386;8.674;2023-10-31T14:47:09;19.60;85.40
18712;DHT22;9485;49.386;8.674;2023-10-31T14:52:30;19.40;85.60
18712;DHT22;9485;49.386;8.674;2023-10-31T14:57:52;19.30;86.10
18712;DHT22;9485;49.386;8.674;2023-10-31T15:03:12;19.10;86.40
18712;DHT22;9485;49.386;8.674;2023-10-31T15:08:33;19.00;86.90
18712;DHT22;9485;49.386;8.674;2023-10-31T15:13:55;18.90;86.80
18712;DHT22;9485;49.386;8.674;2023-10-31T15:19:15;18.80;86.50
18712;DHT22;9485;49.386;8.674;2023-10-31T15:24:36;18.60;86.60
18712;DHT22;9485;49.386;8.674;2023-10-31T15:29:58;18.40;86.60
18712;DHT22;9485;49.386;8.674;2023-10-31T15:35:19;18.30;86.40
18712;DHT22;9485;49.386;8.674;2023-10-31T15:40:41;18.10;86.90
18712;DHT22;9485;49.386;8.674;2023-10-31T15:46:04;17.90;87.20
18712;DHT22;9485;49.386;8.674;2023-10-31T15:51:25;17.80;87.50
18712;DHT22;9485;49.386;8.674;2023-10-31T15:56:46;17.60;88.10
18712;DHT22;9485;49.386;8.674;2023-10-31T16:02:08;17.50;88.40
18712;DHT22;9485;49.386;8.674;2023-10-31T16:07:29;17.40;88.50
18712;DHT22;9485;49.386;8.674;2023-10-31T16:12:50;17.30;88.70
18712;DHT22;9485;49.386;8.674;2023-10-31T16:18:12;17.20;88.90
18712;DHT22;9485;49.386;8.674;2023-10-31T16:23:33;17.20;89.10
18712;DHT22;9485;49.386;8.674;2023-10-31T16:28:54;17.10;89.30
18712;DHT22;9485;49.386;8.674;2023-10-31T16:34:16;17.00;89.50
18712;DHT22;9485;49.386;8.674;2023-10-31T16:39:37;16.90;89.60
18712;DHT22;9485;49.386;8.674;2023-10-31T16:44:58;16.90;89.80
18712;DHT22;9485;49.386;8.674;2023-10-31T16:50:21;16.80;90.00
18712;DHT22;9485;49.386;8.674;2023-10-31T16:55:41;16.80;90.10
18712;DHT22;9485;49.386;8.674;2023-10-31T17:01:02;16.70;90.10
18712;DHT22;9485;49.386;8.674;2023-10-31T17:06:25;16.70;90.20
18712;DHT22;9485;49.386;8.674;2023-10-31T17:11:46;16.70;90.20
18712;DHT22;9485;49.386;8.674;2023-10-31T17:17:07;16.70;90.20
18712;DHT22;9485;49.386;8.674;2023-10-31T17:22:29;16.70;90.20
18712;DHT22;9485;49.386;8.674;2023-10-31T17:27:51;16.50;90.20
18712;DHT22;9485;49.386;8.674;2023-10-31T17:33:12;16.60;90.30
18712;DHT22;9485;49.386;8.674;2023-10-31T17:38:34;16.50;90.30
18712;DHT22;9485;49.386;8.674;2023-10-31T17:43:54;16.50;90.40
18712;DHT22;9485;49.386;8.674;2023-10-31T17:49:15;16.50;90.40
18712;DHT22;9485;49.386;8.674;2023-10-31T17:54:37;16.50;90.50
18712;DHT22;9485;49.386;8.674;2023-10-31T18:00:00;16.50;90.50
18712;DHT22;9485;49.386;8.674;2023-10-31T18:05:31;16.50;90.60
18712;DHT22;9485;49.386;8.674;2023-10-31T18:10:53;16.50;90.60
18712;DHT22;9485;49.386;8.674;2023-10-31T18:16:13;16.50;90.60
18712;DHT22;9485;49.386;8.674;2023-10-31T18:21:34;16.50;90.70
18712;DHT22;9485;49.386;8.674;2023-10-31T18:26:56;16.50;90.60
18712;DHT22;9485;49.386;8.674;2023-10-31T18:32:16;16.50;90.60
18712;DHT22;9485;49.386;8.674;2023-10-31T18:37:38;16.50;90.70
18712;DHT22;9485;49.386;8.674;2023-10-31T18:43:01;16.50;90.70
18712;DHT22;9485;49.386;8.674;2023-10-31T18:48:21;16.50;90.60
18712;DHT22;9485;49.386;8.674;2023-10-31T18:53:42;16.50;90.60
18712;DHT22;9485;49.386;8.674;2023-10-31T18:59:05;16.40;90.70
18712;DHT22;9485;49.386;8.674;2023-10-31T19:04:27;16.40;90.70
18712;DHT22;9485;49.386;8.674;2023-10-31T19:09:48;16.40;90.70
18712;DHT22;9485;49.386;8.674;2023-10-31T19:15:10;16.40;90.80
18712;DHT22;9485;49.386;8.674;2023-10-31T19:20:30;16.40;90.80
18712;DHT22;9485;49.386;8.674;2023-10-31T19:25:51;16.40;90.80
18712;DHT22;9485;49.386;8.674;2023-10-31T19:31:13;16.40;90.80
18712;DHT22;9485;49.386;8.674;2023-10-31T19:36:33;16.40;90.80
18712;DHT22;9485;49.386;8.674;2023-10-31T19:41:54;16.40;90.80
18712;DHT22;9485;49.386;8.674;2023-10-31T19:47:17;16.40;90.90
18712;DHT22;9485;49.386;8.674;2023-10-31T19:52:38;16.40;90.80
18712;DHT22;9485;49.386;8.674;2023-10-31T19:57:59;16.50;90.80
18712;DHT22;9485;49.386;8.674;2023-10-31T20:03:21;16.40;90.70
18712;DHT22;9485;49.386;8.674;2023-10-31T20:08:42;16.40;90.70
18712;DHT22;9485;49.386;8.674;2023-10-31T20:14:03;16.40;90.60
18712;DHT22;9485;49.386;8.674;2023-10-31T20:19:25;16.40;90.60
18712;DHT22;9485;49.386;8.674;2023-10-31T20:24:46;16.40;90.70
18712;DHT22;9485;49.386;8.674;2023-10-31T20:30:07;16.40;90.80
18712;DHT22;9485;49.386;8.674;2023-10-31T20:35:29;16.40;90.80
18712;DHT22;9485;49.386;8.674;2023-10-31T20:40:51;16.40;90.80
18712;DHT22;9485;49.386;8.674;2023-10-31T20:46:12;16.40;90.80
18712;DHT22;9485;49.386;8.674;2023-10-31T20:51:34;16.40;90.80
18712;DHT22;9485;49.386;8.674;2023-10-31T20:56:54;16.50;90.80
18712;DHT22;9485;49.386;8.674;2023-10-31T21:02:15;16.50;90.80
18712;DHT22;9485;49.386;8.674;2023-10-31T21:07:38;16.50;90.70
18712;DHT22;9485;49.386;8.674;2023-10-31T21:12:59;16.50;90.60
18712;DHT22;9485;49.386;8.674;2023-10-31T21:18:20;16.50;90.60
18712;DHT22;9485;49.386;8.674;2023-10-31T21:23:43;16.50;90.60
18712;DHT22;9485;49.386;8.674;2023-10-31T21:29:04;16.50;90.60
18712;DHT22;9485;49.386;8.674;2023-10-31T21:34:25;16.50;90.60
18712;DHT22;9485;49.386;8.674;2023-10-31T21:39:47;16.50;90.60
18712;DHT22;9485;49.386;8.674;2023-10-31T21:45:08;16.50;90.40
18712;DHT22;9485;49.386;8.674;2023-10-31T21:50:28;16.50;90.40
18712;DHT22;9485;49.386;8.674;2023-10-31T21:55:50;16.50;90.40
18712;DHT22;9485;49.386;8.674;2023-10-31T22:01:11;16.40;90.20
18712;DHT22;9485;49.386;8.674;2023-10-31T22:06:32;16.40;90.10
18712;DHT22;9485;49.386;8.674;2023-10-31T22:11:54;16.30;90.10
18712;DHT22;9485;49.386;8.674;2023-10-31T22:17:14;16.20;90.00
18712;DHT22;9485;49.386;8.674;2023-10-31T22:22:35;16.20;90.00
18712;DHT22;9485;49.386;8.674;2023-10-31T22:27:56;16.10;90.10
18712;DHT22;9485;49.386;8.674;2023-10-31T22:33:17;16.00;90.10
18712;DHT22;9485;49.386;8.674;2023-10-31T22:38:38;16.00;90.20
18712;DHT22;9485;49.386;8.674;2023-10-31T22:44:01;16.00;90.20
18712;DHT22;9485;49.386;8.674;2023-10-31T22:49:21;16.00;90.30
18712;DHT22;9485;49.386;8.674;2023-10-31T22:54:45;15.90;90.40
18712;DHT22;9485;49.386;8.674;2023-10-31T23:00:07;15.90;90.50
18712;DHT22;9485;49.386;8.674;2023-10-31T23:05:35;16.00;90.50
18712;DHT22;9485;49.386;8.674;2023-10-31T23:10:56;16.00;90.60
18712;DHT22;9485;49.386;8.674;2023-10-31T23:16:18;16.00;90.60
18712;DHT22;9485;49.386;8.674;2023-10-31T23:21:38;16.10;90.60
18712;DHT22;9485;49.386;8.674;2023-10-31T23:26:59;16.10;90.60
18712;DHT22;9485;49.386;8.674;2023-10-31T23:32:21;16.10;90.60
18712;DHT22;9485;49.386;8.674;2023-10-31T23:37:42;16.20;90.60
18712;DHT22;9485;49.386;8.674;2023-10-31T23:43:02;16.20;90.60
18712;DHT22;9485;49.386;8.674;2023-10-31T23:48:24;16.20;90.60
18712;DHT22;9485;49.386;8.674;2023-10-31T23:53:45;16.30;90.60
18712;DHT22;9485;49.386;8.674;2023-10-31T23:59:05;16.30;90.60
